sensor_id;sensor_type;location;lat;lon;timestamp;pressure;altitude;pressure_sealevel;temperature;humidity
16030;BME280;34770;49.272;11.070;2023-01-09T00:02:11;96189.66;;;3.89;100.00
16030;BME280;34770;49.272;11.070;2023-01-09T00:04:37;96183.72;;;3.87;100.00
16030;BME280;34770;49.272;11.070;2023-01-09T00:07:02;96185.94;;;3.97;100.00
16030;BME280;34770;49.272;11.070;2023-01-09T00:09:28;96168.91;;;3.92;100.00
16030;BME280;34770;49.272;11.070;2023-01-09T00:11:54;96158.94;;;3.87;100.00
16030;BME280;34770;49.272;11.070;2023-01-09T00:14:20;96180.09;;;3.99;100.00
16030;BME280;34770;49.272;11.070;2023-01-09T00:16:47;96157.88;;;3.92;100.00
16030;BME280;34770;49.272;11.070;2023-01-09T00:19:12;96161.44;;;3.92;100.00
16030;BME280;34770;49.272;11.070;2023-01-09T00:21:38;96162.94;;;3.90;100.00
16030;BME280;34770;49.272;11.070;2023-01-09T00:24:04;96174.03;;;3.93;100.00
16030;BME280;34770;49.272;11.070;2023-01-09T00:28:58;96107.47;;;3.59;100.00
16030;BME280;34770;49.272;11.070;2023-01-09T00:31:24;96165.78;;;3.93;100.00
16030;BME280;34770;49.272;11.070;2023-01-09T00:33:57;96156.66;;;3.89;100.00
16030;BME280;34770;49.272;11.070;2023-01-09T00:36:23;96169.00;;;3.95;100.00
16030;BME280;34770;49.272;11.070;2023-01-09T00:38:49;96162.94;;;3.90;100.00
16030;BME280;34770;49.272;11.070;2023-01-09T00:41:18;96155.94;;;3.92;100.00
16030;BME280;34770;49.272;11.070;2023-01-09T00:43:52;96157.34;;;3.86;100.00
16030;BME280;34770;49.272;11.070;2023-01-09T00:46:21;96162.47;;;3.88;100.00
16030;BME280;34770;49.272;11.070;2023-01-09T00:48:49;96156.00;;;3.80;100.00
16030;BME280;34770;49.272;11.070;2023-01-09T00:51:16;96128.97;;;3.70;100.00
16030;BME280;34770;49.272;11.070;2023-01-09T00:53:43;96139.47;;;3.80;100.00
16030;BME280;34770;49.272;11.070;2023-01-09T00:56:14;96142.22;;;3.80;100.00
16030;BME280;34770;49.272;11.070;2023-01-09T00:58:40;96142.03;;;3.73;100.00
16030;BME280;34770;49.272;11.070;2023-01-09T01:01:06;96146.03;;;3.75;100.00
16030;BME280;34770;49.272;11.070;2023-01-09T01:03:32;96145.34;;;3.78;100.00
16030;BME280;34770;49.272;11.070;2023-01-09T01:05:57;96144.06;;;3.76;100.00
16030;BME280;34770;49.272;11.070;2023-01-09T01:08:41;96134.66;;;3.77;100.00
16030;BME280;34770;49.272;11.070;2023-01-09T01:11:08;96136.88;;;3.71;100.00
16030;BME280;34770;49.272;11.070;2023-01-09T01:13:35;96117.44;;;3.64;100.00
16030;BME280;34770;49.272;11.070;2023-01-09T01:16:05;96137.00;;;3.75;100.00
16030;BME280;34770;49.272;11.070;2023-01-09T01:18:31;96145.66;;;3.77;100.00
16030;BME280;34770;49.272;11.070;2023-01-09T01:20:57;96134.75;;;3.80;100.00
16030;BME280;34770;49.272;11.070;2023-01-09T01:23:22;96116.97;;;3.62;100.00
16030;BME280;34770;49.272;11.070;2023-01-09T01:25:47;96140.38;;;3.84;100.00
16030;BME280;34770;49.272;11.070;2023-01-09T01:28:15;96136.81;;;3.83;100.00
16030;BME280;34770;49.272;11.070;2023-01-09T01:30:42;96135.69;;;3.85;100.00
16030;BME280;34770;49.272;11.070;2023-01-09T01:33:09;96132.91;;;3.85;100.00
16030;BME280;34770;49.272;11.070;2023-01-09T01:35:35;96127.31;;;3.81;100.00
16030;BME280;34770;49.272;11.070;2023-01-09T01:38:00;96126.19;;;3.82;100.00
16030;BME280;34770;49.272;11.070;2023-01-09T01:40:26;96127.31;;;3.81;100.00
16030;BME280;34770;49.272;11.070;2023-01-09T01:42:53;96135.59;;;3.81;100.00
16030;BME280;34770;49.272;11.070;2023-01-09T01:45:23;96133.72;;;3.85;100.00
16030;BME280;34770;49.272;11.070;2023-01-09T01:50:36;96130.41;;;3.79;100.00
16030;BME280;34770;49.272;11.070;2023-01-09T01:55:40;96111.25;;;3.83;100.00
16030;BME280;34770;49.272;11.070;2023-01-09T01:58:09;96083.97;;;3.78;100.00
16030;BME280;34770;49.272;11.070;2023-01-09T02:00:41;96071.19;;;3.70;100.00
16030;BME280;34770;49.272;11.070;2023-01-09T02:03:07;96074.38;;;3.72;100.00
16030;BME280;34770;49.272;11.070;2023-01-09T02:05:33;96073.50;;;3.67;100.00
16030;BME280;34770;49.272;11.070;2023-01-09T02:08:00;96096.03;;;3.73;100.00
16030;BME280;34770;49.272;11.070;2023-01-09T02:10:26;96077.66;;;3.61;100.00
16030;BME280;34770;49.272;11.070;2023-01-09T02:12:51;96090.34;;;3.66;100.00
16030;BME280;34770;49.272;11.070;2023-01-09T02:15:17;96087.78;;;3.73;100.00
16030;BME280;34770;49.272;11.070;2023-01-09T02:26:30;96080.09;;;3.79;100.00
16030;BME280;34770;49.272;11.070;2023-01-09T02:32:19;96063.38;;;3.72;100.00
16030;BME280;34770;49.272;11.070;2023-01-09T02:34:56;96075.28;;;3.76;100.00
16030;BME280;34770;49.272;11.070;2023-01-09T02:37:38;96072.09;;;3.74;100.00
16030;BME280;34770;49.272;11.070;2023-01-09T02:42:40;96076.19;;;3.80;100.00
16030;BME280;34770;49.272;11.070;2023-01-09T02:45:07;96068.19;;;3.75;100.00
16030;BME280;34770;49.272;11.070;2023-01-09T02:47:42;96069.78;;;3.76;100.00
16030;BME280;34770;49.272;11.070;2023-01-09T02:50:15;96059.47;;;3.73;100.00
16030;BME280;34770;49.272;11.070;2023-01-09T02:58:11;96059.03;;;3.71;100.00
16030;BME280;34770;49.272;11.070;2023-01-09T03:03:37;96054.56;;;3.66;100.00
16030;BME280;34770;49.272;11.070;2023-01-09T03:06:11;96051.31;;;3.60;100.00
16030;BME280;34770;49.272;11.070;2023-01-09T03:08:42;96030.44;;;3.59;100.00
16030;BME280;34770;49.272;11.070;2023-01-09T03:11:10;96051.03;;;3.65;100.00
16030;BME280;34770;49.272;11.070;2023-01-09T03:13:45;96042.31;;;3.63;100.00
16030;BME280;34770;49.272;11.070;2023-01-09T03:16:15;96036.63;;;3.56;100.00
16030;BME280;34770;49.272;11.070;2023-01-09T03:18:43;96044.66;;;3.61;100.00
16030;BME280;34770;49.272;11.070;2023-01-09T03:21:09;96035.13;;;3.59;100.00
16030;BME280;34770;49.272;11.070;2023-01-09T03:23:56;96027.25;;;3.57;100.00
16030;BME280;34770;49.272;11.070;2023-01-09T03:26:24;96031.69;;;3.62;100.00
16030;BME280;34770;49.272;11.070;2023-01-09T03:28:49;96030.81;;;3.58;100.00
16030;BME280;34770;49.272;11.070;2023-01-09T03:31:15;96012.75;;;3.44;100.00
16030;BME280;34770;49.272;11.070;2023-01-09T03:33:41;96009.00;;;3.37;100.00
16030;BME280;34770;49.272;11.070;2023-01-09T03:36:07;96037.59;;;3.48;100.00
16030;BME280;34770;49.272;11.070;2023-01-09T03:38:33;96035.19;;;3.46;100.00
16030;BME280;34770;49.272;11.070;2023-01-09T03:40:58;96028.28;;;3.53;100.00
16030;BME280;34770;49.272;11.070;2023-01-09T03:43:24;96018.59;;;3.43;100.00
16030;BME280;34770;49.272;11.070;2023-01-09T03:45:49;96040.91;;;3.54;100.00
16030;BME280;34770;49.272;11.070;2023-01-09T03:48:15;96043.56;;;3.50;100.00
16030;BME280;34770;49.272;11.070;2023-01-09T03:50:40;96060.88;;;3.50;100.00
16030;BME280;34770;49.272;11.070;2023-01-09T03:53:12;96053.22;;;3.44;100.00
16030;BME280;34770;49.272;11.070;2023-01-09T03:55:39;96059.16;;;3.46;100.00
16030;BME280;34770;49.272;11.070;2023-01-09T03:58:05;96051.19;;;3.41;100.00
16030;BME280;34770;49.272;11.070;2023-01-09T04:00:30;96044.16;;;3.43;100.00
16030;BME280;34770;49.272;11.070;2023-01-09T04:02:55;96048.22;;;3.33;100.00
16030;BME280;34770;49.272;11.070;2023-01-09T04:05:21;96072.19;;;3.49;100.00
16030;BME280;34770;49.272;11.070;2023-01-09T04:07:46;96075.31;;;3.47;100.00
16030;BME280;34770;49.272;11.070;2023-01-09T04:10:12;96080.22;;;3.54;100.00
16030;BME280;34770;49.272;11.070;2023-01-09T04:12:37;96059.50;;;3.44;100.00
16030;BME280;34770;49.272;11.070;2023-01-09T04:15:03;96048.44;;;3.41;100.00
16030;BME280;34770;49.272;11.070;2023-01-09T04:17:29;96018.72;;;3.18;100.00
16030;BME280;34770;49.272;11.070;2023-01-09T04:19:54;96041.56;;;3.34;100.00
16030;BME280;34770;49.272;11.070;2023-01-09T04:22:20;96065.09;;;3.48;100.00
16030;BME280;34770;49.272;11.070;2023-01-09T04:24:45;96071.59;;;3.56;100.00
16030;BME280;34770;49.272;11.070;2023-01-09T04:27:11;96088.22;;;3.59;100.00
16030;BME280;34770;49.272;11.070;2023-01-09T04:29:37;96085.25;;;3.52;100.00
16030;BME280;34770;49.272;11.070;2023-01-09T04:32:02;96074.63;;;3.50;100.00
16030;BME280;34770;49.272;11.070;2023-01-09T04:34:28;96072.75;;;3.55;100.00
16030;BME280;34770;49.272;11.070;2023-01-09T04:36:53;96061.84;;;3.58;100.00
16030;BME280;34770;49.272;11.070;2023-01-09T04:39:20;96080.94;;;3.67;100.00
16030;BME280;34770;49.272;11.070;2023-01-09T04:41:45;96080.84;;;3.63;100.00
16030;BME280;34770;49.272;11.070;2023-01-09T04:44:23;96086.34;;;3.63;100.00
16030;BME280;34770;49.272;11.070;2023-01-09T04:46:53;96099.06;;;3.68;100.00
16030;BME280;34770;49.272;11.070;2023-01-09T04:49:20;96102.94;;;3.67;100.00
16030;BME280;34770;49.272;11.070;2023-01-09T04:51:45;96090.97;;;3.59;100.00
16030;BME280;34770;49.272;11.070;2023-01-09T04:54:11;96106.75;;;3.62;100.00
16030;BME280;34770;49.272;11.070;2023-01-09T04:56:37;96110.41;;;3.66;100.00
16030;BME280;34770;49.272;11.070;2023-01-09T04:59:04;96090.88;;;3.56;100.00
16030;BME280;34770;49.272;11.070;2023-01-09T05:01:30;96106.84;;;3.66;100.00
16030;BME280;34770;49.272;11.070;2023-01-09T05:03:55;96110.22;;;3.59;100.00
16030;BME280;34770;49.272;11.070;2023-01-09T05:06:23;96113.63;;;3.69;100.00
16030;BME280;34770;49.272;11.070;2023-01-09T05:08:49;96116.03;;;3.70;100.00
16030;BME280;34770;49.272;11.070;2023-01-09T05:11:15;96116.19;;;3.61;100.00
16030;BME280;34770;49.272;11.070;2023-01-09T05:13:40;96134.53;;;3.57;100.00
16030;BME280;34770;49.272;11.070;2023-01-09T05:16:06;96140.75;;;3.54;100.00
16030;BME280;34770;49.272;11.070;2023-01-09T05:18:32;96143.50;;;3.54;100.00
16030;BME280;34770;49.272;11.070;2023-01-09T05:20:57;96130.06;;;3.53;100.00
16030;BME280;34770;49.272;11.070;2023-01-09T05:23:23;96147.34;;;3.65;100.00
16030;BME280;34770;49.272;11.070;2023-01-09T05:25:48;96159.94;;;3.66;100.00
16030;BME280;34770;49.272;11.070;2023-01-09T05:28:14;96161.28;;;3.73;100.00
16030;BME280;34770;49.272;11.070;2023-01-09T05:30:39;96140.03;;;3.57;100.00
16030;BME280;34770;49.272;11.070;2023-01-09T05:33:05;96171.16;;;3.74;100.00
16030;BME280;34770;49.272;11.070;2023-01-09T05:35:30;96149.88;;;3.58;100.00
16030;BME280;34770;49.272;11.070;2023-01-09T05:37:56;96156.72;;;3.64;100.00
16030;BME280;34770;49.272;11.070;2023-01-09T05:40:21;96179.84;;;3.76;100.00
16030;BME280;34770;49.272;11.070;2023-01-09T05:42:47;96150.56;;;3.55;100.00
16030;BME280;34770;49.272;11.070;2023-01-09T05:45:13;96182.69;;;3.79;100.00
16030;BME280;34770;49.272;11.070;2023-01-09T05:47:38;96183.16;;;3.81;100.00
16030;BME280;34770;49.272;11.070;2023-01-09T05:50:04;96180.75;;;3.80;100.00
16030;BME280;34770;49.272;11.070;2023-01-09T05:52:30;96172.03;;;4.06;100.00
16030;BME280;34770;49.272;11.070;2023-01-09T05:54:55;96188.34;;;4.59;100.00
16030;BME280;34770;49.272;11.070;2023-01-09T05:57:21;96198.03;;;5.01;100.00
16030;BME280;34770;49.272;11.070;2023-01-09T05:59:46;96178.97;;;5.12;100.00
16030;BME280;34770;49.272;11.070;2023-01-09T06:02:12;96200.13;;;5.24;100.00
16030;BME280;34770;49.272;11.070;2023-01-09T06:04:37;96189.75;;;5.37;100.00
16030;BME280;34770;49.272;11.070;2023-01-09T06:07:03;96207.63;;;5.43;100.00
16030;BME280;34770;49.272;11.070;2023-01-09T06:09:29;96209.16;;;5.40;100.00
16030;BME280;34770;49.272;11.070;2023-01-09T06:11:55;96214.59;;;5.37;100.00
16030;BME280;34770;49.272;11.070;2023-01-09T06:14:21;96210.97;;;5.33;100.00
16030;BME280;34770;49.272;11.070;2023-01-09T06:16:47;96218.38;;;5.29;100.00
16030;BME280;34770;49.272;11.070;2023-01-09T06:19:13;96208.19;;;5.33;100.00
16030;BME280;34770;49.272;11.070;2023-01-09T06:21:38;96207.66;;;5.27;100.00
16030;BME280;34770;49.272;11.070;2023-01-09T06:24:04;96235.06;;;5.36;100.00
16030;BME280;34770;49.272;11.070;2023-01-09T06:26:30;96175.75;;;5.10;100.00
16030;BME280;34770;49.272;11.070;2023-01-09T06:28:55;96237.19;;;5.42;100.00
16030;BME280;34770;49.272;11.070;2023-01-09T06:31:21;96236.81;;;5.44;100.00
16030;BME280;34770;49.272;11.070;2023-01-09T06:33:47;96248.16;;;5.39;100.00
16030;BME280;34770;49.272;11.070;2023-01-09T06:36:13;96251.06;;;5.46;100.00
16030;BME280;34770;49.272;11.070;2023-01-09T06:38:38;96253.22;;;5.37;100.00
16030;BME280;34770;49.272;11.070;2023-01-09T06:41:04;96254.91;;;5.41;100.00
16030;BME280;34770;49.272;11.070;2023-01-09T06:43:29;96262.22;;;5.34;100.00
16030;BME280;34770;49.272;11.070;2023-01-09T06:45:55;96265.09;;;5.21;100.00
16030;BME280;34770;49.272;11.070;2023-01-09T06:48:21;96275.22;;;5.17;100.00
16030;BME280;34770;49.272;11.070;2023-01-09T06:50:53;96292.03;;;5.12;100.00
16030;BME280;34770;49.272;11.070;2023-01-09T06:53:19;96289.28;;;5.12;100.00
16030;BME280;34770;49.272;11.070;2023-01-09T06:55:44;96297.47;;;5.08;100.00
16030;BME280;34770;49.272;11.070;2023-01-09T06:58:10;96305.09;;;4.99;100.00
16030;BME280;34770;49.272;11.070;2023-01-09T07:00:36;96313.66;;;4.94;100.00
16030;BME280;34770;49.272;11.070;2023-01-09T07:03:02;96322.72;;;4.94;100.00
16030;BME280;34770;49.272;11.070;2023-01-09T07:05:28;96319.06;;;4.90;100.00
16030;BME280;34770;49.272;11.070;2023-01-09T07:07:54;96318.53;;;4.85;100.00
16030;BME280;34770;49.272;11.070;2023-01-09T07:10:19;96326.47;;;4.86;100.00
16030;BME280;34770;49.272;11.070;2023-01-09T07:12:45;96318.53;;;4.85;100.00
16030;BME280;34770;49.272;11.070;2023-01-09T07:15:10;96316.22;;;4.87;100.00
16030;BME280;34770;49.272;11.070;2023-01-09T07:17:36;96321.19;;;4.81;100.00
16030;BME280;34770;49.272;11.070;2023-01-09T07:20:05;96294.94;;;4.71;100.00
16030;BME280;34770;49.272;11.070;2023-01-09T07:22:30;96310.88;;;4.78;100.00
16030;BME280;34770;49.272;11.070;2023-01-09T07:24:56;96327.50;;;4.82;100.00
16030;BME280;34770;49.272;11.070;2023-01-09T07:27:21;96313.00;;;4.69;100.00
16030;BME280;34770;49.272;11.070;2023-01-09T07:29:47;96313.19;;;4.76;100.00
16030;BME280;34770;49.272;11.070;2023-01-09T07:32:12;96332.19;;;4.81;100.00
16030;BME280;34770;49.272;11.070;2023-01-09T07:34:38;96308.97;;;4.66;100.00
16030;BME280;34770;49.272;11.070;2023-01-09T07:37:03;96327.22;;;4.71;100.00
16030;BME280;34770;49.272;11.070;2023-01-09T07:39:29;96315.94;;;4.76;100.00
16030;BME280;34770;49.272;11.070;2023-01-09T07:41:54;96331.06;;;4.82;100.00
16030;BME280;34770;49.272;11.070;2023-01-09T07:44:20;96344.75;;;4.78;100.00
16030;BME280;34770;49.272;11.070;2023-01-09T07:46:45;96359.28;;;4.91;100.00
16030;BME280;34770;49.272;11.070;2023-01-09T07:49:11;96342.09;;;4.82;100.00
16030;BME280;34770;49.272;11.070;2023-01-09T07:51:36;96363.19;;;4.90;100.00
16030;BME280;34770;49.272;11.070;2023-01-09T07:54:07;96366.28;;;4.89;100.00
16030;BME280;34770;49.272;11.070;2023-01-09T07:56:32;96374.91;;;4.87;100.00
16030;BME280;34770;49.272;11.070;2023-01-09T07:58:57;96376.13;;;4.74;100.00
16030;BME280;34770;49.272;11.070;2023-01-09T08:01:23;96386.19;;;4.82;100.00
16030;BME280;34770;49.272;11.070;2023-01-09T08:03:48;96367.31;;;4.68;100.00
16030;BME280;34770;49.272;11.070;2023-01-09T08:06:14;96383.69;;;4.77;100.00
16030;BME280;34770;49.272;11.070;2023-01-09T08:08:39;96398.81;;;4.83;100.00
16030;BME280;34770;49.272;11.070;2023-01-09T08:11:05;96400.44;;;4.84;100.00
16030;BME280;34770;49.272;11.070;2023-01-09T08:13:30;96389.41;;;4.84;100.00
16030;BME280;34770;49.272;11.070;2023-01-09T08:15:55;96386.53;;;4.81;100.00
16030;BME280;34770;49.272;11.070;2023-01-09T08:18:21;96395.47;;;4.90;100.00
16030;BME280;34770;49.272;11.070;2023-01-09T08:20:47;96402.66;;;4.94;100.00
16030;BME280;34770;49.272;11.070;2023-01-09T08:23:13;96385.59;;;4.89;100.00
16030;BME280;34770;49.272;11.070;2023-01-09T08:25:38;96417.97;;;4.92;100.00
16030;BME280;34770;49.272;11.070;2023-01-09T08:28:04;96401.09;;;4.93;100.00
16030;BME280;34770;49.272;11.070;2023-01-09T08:30:30;96420.47;;;4.97;100.00
16030;BME280;34770;49.272;11.070;2023-01-09T08:32:56;96431.16;;;4.99;100.00
16030;BME280;34770;49.272;11.070;2023-01-09T08:35:21;96437.03;;;4.97;100.00
16030;BME280;34770;49.272;11.070;2023-01-09T08:37:47;96438.06;;;4.92;100.00
16030;BME280;34770;49.272;11.070;2023-01-09T08:40:14;96450.19;;;5.04;100.00
16030;BME280;34770;49.272;11.070;2023-01-09T08:42:40;96435.94;;;5.02;100.00
16030;BME280;34770;49.272;11.070;2023-01-09T08:45:24;96451.59;;;4.98;100.00
16030;BME280;34770;49.272;11.070;2023-01-09T08:48:08;96430.94;;;4.91;100.00
16030;BME280;34770;49.272;11.070;2023-01-09T08:50:34;96462.53;;;4.94;100.00
16030;BME280;34770;49.272;11.070;2023-01-09T08:52:59;96441.97;;;4.91;100.00
16030;BME280;34770;49.272;11.070;2023-01-09T08:55:25;96436.38;;;4.88;100.00
16030;BME280;34770;49.272;11.070;2023-01-09T08:57:52;96461.28;;;4.91;100.00
16030;BME280;34770;49.272;11.070;2023-01-09T09:00:19;96470.53;;;4.99;100.00
16030;BME280;34770;49.272;11.070;2023-01-09T09:02:52;96459.78;;;4.94;100.00
16030;BME280;34770;49.272;11.070;2023-01-09T09:05:19;96474.34;;;4.94;100.00
16030;BME280;34770;49.272;11.070;2023-01-09T09:07:48;96472.88;;;4.97;100.00
16030;BME280;34770;49.272;11.070;2023-01-09T09:10:17;96479.63;;;5.00;100.00
16030;BME280;34770;49.272;11.070;2023-01-09T09:12:43;96478.56;;;5.04;100.00
16030;BME280;34770;49.272;11.070;2023-01-09T09:15:10;96475.38;;;5.02;100.00
16030;BME280;34770;49.272;11.070;2023-01-09T09:17:44;96481.88;;;5.10;100.00
16030;BME280;34770;49.272;11.070;2023-01-09T09:20:10;96475.22;;;5.11;100.00
16030;BME280;34770;49.272;11.070;2023-01-09T09:22:38;96472.66;;;5.18;100.00
16030;BME280;34770;49.272;11.070;2023-01-09T09:25:04;96466.63;;;5.29;100.00
16030;BME280;34770;49.272;11.070;2023-01-09T09:27:30;96472.41;;;5.39;100.00
16030;BME280;34770;49.272;11.070;2023-01-09T09:29:59;96486.22;;;5.39;100.00
16030;BME280;34770;49.272;11.070;2023-01-09T09:32:24;96476.47;;;5.42;100.00
16030;BME280;34770;49.272;11.070;2023-01-09T09:34:50;96490.78;;;5.48;100.00
16030;BME280;34770;49.272;11.070;2023-01-09T09:37:15;96502.63;;;5.48;100.00
16030;BME280;34770;49.272;11.070;2023-01-09T09:39:40;96486.06;;;5.48;100.00
16030;BME280;34770;49.272;11.070;2023-01-09T09:45:24;96501.22;;;5.54;100.00
16030;BME280;34770;49.272;11.070;2023-01-09T09:53:42;96512.16;;;5.51;100.00
16030;BME280;34770;49.272;11.070;2023-01-09T09:56:13;96517.03;;;5.41;100.00
16030;BME280;34770;49.272;11.070;2023-01-09T09:58:44;96508.66;;;5.38;100.00
16030;BME280;34770;49.272;11.070;2023-01-09T10:01:14;96510.53;;;5.34;100.00
16030;BME280;34770;49.272;11.070;2023-01-09T10:03:46;96497.00;;;5.29;100.00
16030;BME280;34770;49.272;11.070;2023-01-09T10:06:29;96519.31;;;5.39;100.00
16030;BME280;34770;49.272;11.070;2023-01-09T10:09:10;96516.22;;;5.41;100.00
16030;BME280;34770;49.272;11.070;2023-01-09T10:11:57;96506.41;;;5.27;100.00
16030;BME280;34770;49.272;11.070;2023-01-09T10:14:24;96513.91;;;5.43;100.00
16030;BME280;34770;49.272;11.070;2023-01-09T10:25:39;96498.81;;;5.53;100.00
16030;BME280;34770;49.272;11.070;2023-01-09T10:30:50;96499.97;;;5.68;100.00
16030;BME280;34770;49.272;11.070;2023-01-09T10:38:48;96490.56;;;5.85;100.00
16030;BME280;34770;49.272;11.070;2023-01-09T10:41:28;96495.09;;;5.77;100.00
16030;BME280;34770;49.272;11.070;2023-01-09T10:44:09;96494.19;;;5.57;100.00
16030;BME280;34770;49.272;11.070;2023-01-09T10:46:54;96504.69;;;5.67;100.00
16030;BME280;34770;49.272;11.070;2023-01-09T10:49:22;96506.66;;;5.67;100.00
16030;BME280;34770;49.272;11.070;2023-01-09T10:54:45;96505.97;;;5.70;100.00
16030;BME280;34770;49.272;11.070;2023-01-09T10:57:24;96493.81;;;5.74;100.00
16030;BME280;34770;49.272;11.070;2023-01-09T10:59:55;96504.78;;;5.71;100.00
16030;BME280;34770;49.272;11.070;2023-01-09T11:02:32;96498.47;;;5.70;100.00
16030;BME280;34770;49.272;11.070;2023-01-09T11:04:58;96503.28;;;5.73;100.00
16030;BME280;34770;49.272;11.070;2023-01-09T11:07:30;96511.81;;;5.68;100.00
16030;BME280;34770;49.272;11.070;2023-01-09T11:10:11;96479.50;;;5.53;100.00
16030;BME280;34770;49.272;11.070;2023-01-09T11:12:38;96503.91;;;5.67;100.00
16030;BME280;34770;49.272;11.070;2023-01-09T11:17:42;96517.00;;;5.70;100.00
16030;BME280;34770;49.272;11.070;2023-01-09T11:22:44;96510.66;;;5.53;100.00
16030;BME280;34770;49.272;11.070;2023-01-09T11:25:13;96514.06;;;5.63;100.00
16030;BME280;34770;49.272;11.070;2023-01-09T11:27:39;96511.81;;;5.68;100.00
16030;BME280;34770;49.272;11.070;2023-01-09T11:30:19;96512.81;;;5.76;100.00
16030;BME280;34770;49.272;11.070;2023-01-09T11:32:48;96516.00;;;5.78;100.00
16030;BME280;34770;49.272;11.070;2023-01-09T11:35:17;96510.31;;;5.71;100.00
16030;BME280;34770;49.272;11.070;2023-01-09T11:37:43;96512.81;;;5.76;100.00
16030;BME280;34770;49.272;11.070;2023-01-09T11:40:20;96501.59;;;5.69;100.00
16030;BME280;34770;49.272;11.070;2023-01-09T11:43:10;96504.19;;;5.78;100.00
16030;BME280;34770;49.272;11.070;2023-01-09T11:45:43;96503.81;;;5.79;100.00
16030;BME280;34770;49.272;11.070;2023-01-09T11:48:37;96497.22;;;5.84;100.00
16030;BME280;34770;49.272;11.070;2023-01-09T11:51:28;96490.81;;;5.80;100.00
16030;BME280;34770;49.272;11.070;2023-01-09T11:56:48;96494.19;;;5.89;100.00
16030;BME280;34770;49.272;11.070;2023-01-09T11:59:17;96496.72;;;5.94;100.00
16030;BME280;34770;49.272;11.070;2023-01-09T12:05:20;96480.28;;;5.85;100.00
16030;BME280;34770;49.272;11.070;2023-01-09T12:08:18;96488.75;;;5.93;100.00
16030;BME280;34770;49.272;11.070;2023-01-09T12:16:34;96493.91;;;5.78;100.00
16030;BME280;34770;49.272;11.070;2023-01-09T12:22:16;96501.69;;;5.88;100.00
16030;BME280;34770;49.272;11.070;2023-01-09T12:28:13;96500.63;;;5.93;100.00
16030;BME280;34770;49.272;11.070;2023-01-09T12:35:53;96491.44;;;5.89;100.00
16030;BME280;34770;49.272;11.070;2023-01-09T12:38:24;96504.81;;;5.87;100.00
16030;BME280;34770;49.272;11.070;2023-01-09T12:41:11;96500.34;;;5.82;100.00
16030;BME280;34770;49.272;11.070;2023-01-09T12:46:20;96504.81;;;5.87;100.00
16030;BME280;34770;49.272;11.070;2023-01-09T12:56:33;96513.75;;;6.28;100.00
16030;BME280;34770;49.272;11.070;2023-01-09T12:59:09;96507.56;;;6.35;100.00
16030;BME280;34770;49.272;11.070;2023-01-09T13:01:44;96515.50;;;6.20;100.00
16030;BME280;34770;49.272;11.070;2023-01-09T13:04:33;96514.72;;;6.20;100.00
16030;BME280;34770;49.272;11.070;2023-01-09T13:07:17;96516.69;;;6.35;100.00
16030;BME280;34770;49.272;11.070;2023-01-09T13:09:46;96512.44;;;6.58;100.00
16030;BME280;34770;49.272;11.070;2023-01-09T13:12:16;96515.59;;;6.76;99.99
16030;BME280;34770;49.272;11.070;2023-01-09T13:15:05;96505.28;;;7.31;99.71
16030;BME280;34770;49.272;11.070;2023-01-09T13:17:48;96510.25;;;7.85;91.81
16030;BME280;34770;49.272;11.070;2023-01-09T13:22:52;96508.34;;;8.39;86.98
16030;BME280;34770;49.272;11.070;2023-01-09T13:25:39;96513.25;;;8.22;86.41
16030;BME280;34770;49.272;11.070;2023-01-09T13:31:29;96512.88;;;7.77;88.87
16030;BME280;34770;49.272;11.070;2023-01-09T13:33:58;96478.78;;;7.11;89.81
16030;BME280;34770;49.272;11.070;2023-01-09T13:36:36;96488.63;;;7.08;90.79
16030;BME280;34770;49.272;11.070;2023-01-09T13:39:02;96495.78;;;7.52;90.69
16030;BME280;34770;49.272;11.070;2023-01-09T13:41:30;96502.91;;;7.96;89.84
16030;BME280;34770;49.272;11.070;2023-01-09T13:46:48;96508.69;;;7.44;90.70
16030;BME280;34770;49.272;11.070;2023-01-09T14:08:05;96525.47;;;6.57;97.87
16030;BME280;34770;49.272;11.070;2023-01-09T14:13:22;96532.44;;;6.35;99.91
16030;BME280;34770;49.272;11.070;2023-01-09T14:15:49;96551.50;;;6.40;100.00
16030;BME280;34770;49.272;11.070;2023-01-09T14:21:01;96556.16;;;6.36;100.00
16030;BME280;34770;49.272;11.070;2023-01-09T14:23:38;96548.59;;;6.33;100.00
16030;BME280;34770;49.272;11.070;2023-01-09T14:26:22;96550.00;;;6.27;100.00
16030;BME280;34770;49.272;11.070;2023-01-09T14:28:48;96545.19;;;6.23;100.00
16030;BME280;34770;49.272;11.070;2023-01-09T14:31:31;96542.53;;;6.27;100.00
16030;BME280;34770;49.272;11.070;2023-01-09T14:34:24;96542.53;;;6.27;100.00
16030;BME280;34770;49.272;11.070;2023-01-09T14:36:53;96542.44;;;6.23;100.00
16030;BME280;34770;49.272;11.070;2023-01-09T14:39:23;96546.63;;;6.17;100.00
16030;BME280;34770;49.272;11.070;2023-01-09T14:41:55;96542.25;;;6.16;100.00
16030;BME280;34770;49.272;11.070;2023-01-09T14:53:14;96558.00;;;6.00;100.00
16030;BME280;34770;49.272;11.070;2023-01-09T14:58:20;96564.44;;;6.04;100.00
16030;BME280;34770;49.272;11.070;2023-01-09T15:01:01;96567.44;;;5.99;100.00
16030;BME280;34770;49.272;11.070;2023-01-09T15:03:32;96569.91;;;5.88;100.00
16030;BME280;34770;49.272;11.070;2023-01-09T15:05:59;96581.97;;;5.96;100.00
16030;BME280;34770;49.272;11.070;2023-01-09T15:08:25;96595.31;;;5.94;100.00
16030;BME280;34770;49.272;11.070;2023-01-09T15:10:53;96587.78;;;5.78;100.00
16030;BME280;34770;49.272;11.070;2023-01-09T15:13:30;96623.94;;;5.73;100.00
16030;BME280;34770;49.272;11.070;2023-01-09T15:15:57;96641.97;;;5.54;100.00
16030;BME280;34770;49.272;11.070;2023-01-09T15:18:24;96629.97;;;5.22;100.00
16030;BME280;34770;49.272;11.070;2023-01-09T15:20:59;96623.22;;;5.19;100.00
16030;BME280;34770;49.272;11.070;2023-01-09T15:23:27;96633.22;;;5.11;100.00